Time;durP1;ratioP1;P1;durP2;ratioP2;P2;SDS_P1;SDS_P2;PMS_P1;PMS_P2;Temp;Humidity;BMP_temperature;BMP_pressure;BME280_temperature;BME280_humidity;BME280_pressure;Samples;Min_cycle;Max_cycle;Signal;HPM_P1;HPM_P2
2022/10/23 00:00:18;;;;;;;28.13;11.20;;;12.70;99.90;;;;;;5088293;28;20484;-61
2022/10/23 00:02:51;;;;;;;19.60;9.13;;;12.70;99.90;;;;;;5086646;28;20588;-62
2022/10/23 00:05:20;;;;;;;22.40;10.03;;;12.70;99.90;;;;;;5090605;28;20504;-62
2022/10/23 00:07:50;;;;;;;18.00;8.20;;;12.70;99.90;;;;;;5091327;28;21065;-61
2022/10/23 00:10:16;;;;;;;26.67;10.00;;;12.70;99.90;;;;;;5090648;28;20485;-60
2022/10/23 00:12:43;;;;;;;18.83;8.87;;;12.60;99.90;;;;;;5092786;28;21295;-61
2022/10/23 00:15:11;;;;;;;54.97;20.93;;;12.60;99.90;;;;;;5090630;27;20473;-61
2022/10/23 00:17:37;;;;;;;17.70;8.30;;;12.60;99.90;;;;;;5089925;28;21052;-61
2022/10/23 00:20:06;;;;;;;33.50;14.30;;;12.60;99.90;;;;;;5094130;27;20485;-61
2022/10/23 00:22:34;;;;;;;15.10;7.07;;;12.60;99.90;;;;;;5076865;28;20913;-62
2022/10/23 00:25:01;;;;;;;39.13;10.00;;;12.60;99.90;;;;;;5087098;28;21656;-62
2022/10/23 00:27:28;;;;;;;16.23;7.57;;;12.60;99.90;;;;;;5088217;28;20477;-61
2022/10/23 00:29:55;;;;;;;16.97;8.27;;;12.60;99.90;;;;;;5088102;28;20826;-61
2022/10/23 00:32:21;;;;;;;38.03;8.83;;;12.60;99.90;;;;;;5078196;28;21097;-61
2022/10/23 00:34:48;;;;;;;16.10;8.17;;;12.60;99.90;;;;;;5091657;28;20489;-61
2022/10/23 00:37:15;;;;;;;28.30;11.90;;;12.40;99.90;;;;;;5089495;28;21001;-61
2022/10/23 00:39:43;;;;;;;22.33;9.53;;;12.40;99.90;;;;;;5079996;27;20481;-60
2022/10/23 00:42:11;;;;;;;32.13;12.83;;;12.30;99.90;;;;;;5090781;28;20481;-61
2022/10/23 00:45:11;;;;;;;21.47;8.63;;;12.20;99.90;;;;;;5092312;28;20524;-61
2022/10/23 00:47:38;;;;;;;17.73;8.53;;;12.20;99.90;;;;;;5089618;28;20493;-62
2022/10/23 00:50:05;;;;;;;31.53;12.53;;;12.20;99.90;;;;;;5090472;28;20502;-61
2022/10/23 00:52:33;;;;;;;15.73;6.90;;;12.20;99.90;;;;;;5091785;28;20745;-62
2022/10/23 00:55:02;;;;;;;16.73;7.70;;;12.20;99.90;;;;;;5092324;28;20478;-61
2022/10/23 00:57:29;;;;;;;18.50;8.13;;;12.20;99.90;;;;;;5089885;28;20478;-61
2022/10/23 00:59:55;;;;;;;20.07;9.40;;;12.20;99.90;;;;;;5091970;28;20485;-61
2022/10/23 01:02:22;;;;;;;16.00;7.37;;;12.20;99.90;;;;;;5090733;28;20485;-61
2022/10/23 01:04:49;;;;;;;21.17;7.90;;;12.20;99.90;;;;;;5091201;28;20482;-61
2022/10/23 01:07:22;;;;;;;26.90;12.13;;;12.30;99.90;;;;;;5088859;28;20481;-61
2022/10/23 01:09:55;;;;;;;21.00;10.03;;;12.30;99.90;;;;;;5092410;28;20900;-61
2022/10/23 01:12:28;;;;;;;16.87;7.00;;;12.30;99.90;;;;;;5093012;27;21071;-61
2022/10/23 01:15:02;;;;;;;18.27;8.83;;;12.20;99.90;;;;;;5090986;28;20497;-61
2022/10/23 01:17:37;;;;;;;12.43;6.23;;;12.30;99.90;;;;;;5089644;28;21102;-61
2022/10/23 01:20:31;;;;;;;27.33;12.40;;;12.20;99.90;;;;;;5090120;28;20582;-61
2022/10/23 01:23:22;;;;;;;17.70;8.13;;;12.30;99.90;;;;;;5084454;28;21017;-61
2022/10/23 01:26:08;;;;;;;27.57;10.23;;;12.30;99.90;;;;;;5080432;28;20477;-61
2022/10/23 01:28:44;;;;;;;15.10;7.67;;;12.40;99.90;;;;;;5089325;27;20906;-61
2022/10/23 01:31:16;;;;;;;26.90;10.47;;;12.30;99.90;;;;;;5077029;27;20487;-61
2022/10/23 01:33:47;;;;;;;21.57;9.13;;;12.40;99.90;;;;;;5089977;28;20476;-61
2022/10/23 01:36:15;;;;;;;53.60;16.57;;;;;;;;;;5087993;28;20802;-61
2022/10/23 01:38:48;;;;;;;17.83;8.83;;;12.30;99.90;;;;;;5076937;28;20466;-60
2022/10/23 01:41:19;;;;;;;34.03;13.47;;;12.40;99.90;;;;;;5089719;28;20843;-60
2022/10/23 01:43:51;;;;;;;29.47;9.07;;;12.40;99.90;;;;;;5062182;28;20848;-61
2022/10/23 01:46:19;;;;;;;26.57;12.47;;;12.40;99.90;;;;;;5086944;28;20480;-60
2022/10/23 01:48:50;;;;;;;23.07;11.27;;;12.30;99.90;;;;;;5090630;28;20458;-60
2022/10/23 01:51:18;;;;;;;24.63;10.50;;;12.30;99.90;;;;;;5060668;28;20757;-60
2022/10/23 01:53:47;;;;;;;20.63;8.50;;;12.30;99.90;;;;;;5080013;28;20473;-60
2022/10/23 01:56:18;;;;;;;34.63;14.13;;;12.30;99.90;;;;;;5087716;28;20481;-60
2022/10/23 01:58:50;;;;;;;23.37;9.00;;;12.30;99.90;;;;;;5072085;28;21082;-60
2022/10/23 02:01:19;;;;;;;25.73;9.97;;;12.30;99.90;;;;;;5068494;28;20481;-61
2022/10/23 02:03:47;;;;;;;24.93;8.53;;;12.30;99.90;;;;;;5092204;28;20481;-61
2022/10/23 02:06:14;;;;;;;30.57;12.63;;;12.30;99.90;;;;;;5092721;28;21017;-61
2022/10/23 02:08:41;;;;;;;16.63;7.83;;;12.30;99.90;;;;;;5094367;28;20478;-61
2022/10/23 02:11:11;;;;;;;27.57;11.63;;;12.30;99.90;;;;;;5093573;28;20477;-60
2022/10/23 02:13:44;;;;;;;14.40;7.13;;;12.30;99.90;;;;;;5089338;28;20509;-61
2022/10/23 02:16:21;;;;;;;31.80;12.33;;;12.30;99.90;;;;;;5089852;28;20738;-61
2022/10/23 02:18:58;;;;;;;15.97;8.03;;;12.30;99.90;;;;;;5091215;28;20469;-61
2022/10/23 02:21:31;;;;;;;24.50;9.83;;;12.30;99.90;;;;;;5093335;28;20489;-60
2022/10/23 02:24:02;;;;;;;27.23;9.70;;;12.30;99.90;;;;;;5081779;27;20469;-60
2022/10/23 02:26:35;;;;;;;12.23;7.90;;;12.30;99.90;;;;;;5090737;28;20756;-60
2022/10/23 02:29:09;;;;;;;31.57;10.67;;;12.30;99.90;;;;;;5090018;28;20488;-61
2022/10/23 02:31:37;;;;;;;17.87;9.33;;;12.30;99.90;;;;;;5090921;28;20477;-61
2022/10/23 02:34:04;;;;;;;35.37;10.17;;;12.20;99.90;;;;;;5077553;28;20486;-61
2022/10/23 02:36:31;;;;;;;15.57;7.37;;;12.20;99.90;;;;;;5090629;28;20500;-61
2022/10/23 02:38:58;;;;;;;17.53;8.50;;;12.20;99.90;;;;;;5092794;28;20844;-60
2022/10/23 02:41:41;;;;;;;25.77;9.03;;;12.20;99.90;;;;;;5094670;28;20477;-61
2022/10/23 02:44:27;;;;;;;32.17;11.53;;;12.20;99.90;;;;;;5090384;28;20474;-60
2022/10/23 02:47:01;;;;;;;24.07;8.17;;;12.10;99.90;;;;;;5057290;28;20477;-61
2022/10/23 02:49:38;;;;;;;27.03;9.43;;;14.80;99.90;;;;;;5088277;28;20469;-60
2022/10/23 02:52:11;;;;;;;38.93;12.87;;;11.70;99.90;;;;;;5080280;28;20646;-60
2022/10/23 02:54:54;;;;;;;30.60;10.00;;;11.60;99.90;;;;;;5079398;28;20508;-60
2022/10/23 02:57:25;;;;;;;35.70;8.40;;;11.60;99.90;;;;;;5090049;28;20969;-61
2022/10/23 03:00:01;;;;;;;20.67;8.10;;;11.70;99.90;;;;;;5092260;28;20701;-61
2022/10/23 03:02:35;;;;;;;37.97;8.20;;;11.70;99.90;;;;;;5064419;28;20834;-61
2022/10/23 03:05:04;;;;;;;38.33;12.97;;;11.70;99.90;;;;;;5078508;28;20474;-60
2022/10/23 03:07:31;;;;;;;18.73;7.80;;;11.60;99.90;;;;;;5091611;28;20674;-61
2022/10/23 03:09:58;;;;;;;20.33;8.20;;;11.60;99.90;;;;;;5093337;28;21114;-61
2022/10/23 03:12:25;;;;;;;23.33;8.80;;;11.70;99.90;;;;;;5093867;28;20792;-60
2022/10/23 03:14:52;;;;;;;27.20;9.23;;;11.80;99.90;;;;;;5091669;28;20473;-60
2022/10/23 03:17:18;;;;;;;27.00;8.83;;;11.80;99.90;;;;;;5075233;28;20474;-60
2022/10/23 03:19:46;;;;;;;23.67;9.10;;;11.90;99.90;;;;;;5086749;28;20508;-60
2022/10/23 03:22:13;;;;;;;45.27;14.47;;;11.90;99.90;;;;;;5092981;28;20481;-60
2022/10/23 03:24:40;;;;;;;25.00;7.47;;;11.90;99.90;;;;;;5095701;28;21146;-61
2022/10/23 03:27:06;;;;;;;50.50;13.97;;;11.90;99.90;;;;;;5091064;28;20482;-61
2022/10/23 03:29:33;;;;;;;23.17;7.37;;;11.80;99.90;;;;;;5092929;28;20473;-62
2022/10/23 03:32:00;;;;;;;27.93;10.10;;;11.70;99.90;;;;;;5089918;28;20469;-60
2022/10/23 03:34:27;;;;;;;16.37;8.10;;;11.70;99.90;;;;;;5095743;28;20841;-60
2022/10/23 03:36:55;;;;;;;19.33;7.77;;;11.70;99.90;;;;;;5091844;28;20470;-61
2022/10/23 03:39:22;;;;;;;26.00;8.77;;;11.70;99.90;;;;;;5095739;28;20543;-61
2022/10/23 03:41:49;;;;;;;29.27;9.60;;;11.70;99.90;;;;;;5093026;28;20834;-60
2022/10/23 03:44:15;;;;;;;35.40;13.10;;;11.80;99.90;;;;;;5094800;28;20473;-61
2022/10/23 03:46:42;;;;;;;29.63;8.93;;;11.80;99.90;;;;;;5093781;28;20489;-60
2022/10/23 03:49:09;;;;;;;32.03;11.80;;;11.80;99.90;;;;;;5095762;28;21044;-61
2022/10/23 03:51:35;;;;;;;23.80;10.57;;;11.80;99.90;;;;;;5097197;28;20473;-61
2022/10/23 03:54:04;;;;;;;30.27;9.80;;;11.70;99.90;;;;;;5096690;28;20480;-61
2022/10/23 03:56:30;;;;;;;32.30;12.23;;;10.60;99.90;;;;;;5080301;28;20483;-61
2022/10/23 03:58:57;;;;;;;16.67;6.90;;;11.40;99.90;;;;;;5068401;28;20473;-61
2022/10/23 04:01:24;;;;;;;19.73;7.23;;;11.50;99.90;;;;;;5095784;28;20839;-60
2022/10/23 04:03:50;;;;;;;25.73;9.10;;;11.80;99.90;;;;;;5093519;28;20484;-61
2022/10/23 04:06:17;;;;;;;41.83;13.73;;;11.60;99.90;;;;;;5093757;28;20490;-62
2022/10/23 04:08:44;;;;;;;19.47;8.00;;;11.50;99.90;;;;;;5093408;28;21045;-60
2022/10/23 04:11:13;;;;;;;43.03;15.30;;;11.40;99.90;;;;;;5089353;28;20710;-61
2022/10/23 04:13:39;;;;;;;25.73;10.67;;;11.50;99.90;;;;;;5095124;28;20489;-61
2022/10/23 04:16:06;;;;;;;32.17;10.23;;;11.60;99.90;;;;;;5094759;28;20489;-61
2022/10/23 04:18:33;;;;;;;14.17;7.30;;;11.70;99.90;;;;;;5095727;28;20984;-60
2022/10/23 04:21:00;;;;;;;39.30;11.17;;;11.70;99.90;;;;;;5100998;28;20484;-60
2022/10/23 04:23:26;;;;;;;19.43;7.07;;;11.80;99.90;;;;;;5099571;28;20477;-60
2022/10/23 04:25:56;;;;;;;16.37;8.30;;;11.80;99.90;;;;;;5099668;27;20905;-62
2022/10/23 04:28:24;;;;;;;14.23;8.03;;;11.80;99.90;;;;;;5093039;28;20587;-60
2022/10/23 04:30:52;;;;;;;20.37;8.27;;;11.80;99.90;;;;;;5086362;28;20508;-62
2022/10/23 04:33:19;;;;;;;21.67;9.73;;;11.80;99.90;;;;;;5091355;28;20496;-60
2022/10/23 04:35:45;;;;;;;22.73;9.53;;;11.80;99.90;;;;;;5096260;28;20496;-62
2022/10/23 04:38:12;;;;;;;27.63;11.50;;;11.80;99.90;;;;;;5091166;28;20488;-61
2022/10/23 04:40:39;;;;;;;17.63;9.43;;;11.90;99.90;;;;;;5094484;27;20481;-60
2022/10/23 04:43:06;;;;;;;50.90;15.53;;;11.90;99.90;;;;;;5097338;27;21276;-61
2022/10/23 04:45:34;;;;;;;17.93;7.20;;;11.80;99.90;;;;;;5096455;28;21060;-61
2022/10/23 04:48:00;;;;;;;24.67;8.73;;;11.80;99.90;;;;;;5090764;28;20474;-60
2022/10/23 04:50:27;;;;;;;29.40;8.77;;;11.80;99.90;;;;;;5093630;28;20868;-61
2022/10/23 04:52:54;;;;;;;18.30;6.63;;;11.80;99.90;;;;;;5082191;28;20493;-61
2022/10/23 04:55:21;;;;;;;17.77;7.93;;;11.80;99.90;;;;;;5092084;28;20496;-61
2022/10/23 04:57:48;;;;;;;16.43;8.60;;;11.80;99.90;;;;;;5090844;28;20489;-61
2022/10/23 05:00:15;;;;;;;28.43;10.07;;;11.80;99.90;;;;;;5084412;27;20484;-61
2022/10/23 05:02:44;;;;;;;17.10;7.37;;;11.70;99.90;;;;;;5095025;28;20488;-61
2022/10/23 05:05:11;;;;;;;21.83;10.10;;;11.70;99.90;;;;;;5093577;28;21155;-62
2022/10/23 05:07:38;;;;;;;19.50;9.20;;;11.70;99.90;;;;;;5089716;28;20473;-61
2022/10/23 05:10:05;;;;;;;35.20;13.67;;;11.70;99.90;;;;;;5095041;28;20610;-61
2022/10/23 05:12:32;;;;;;;21.40;7.87;;;11.70;99.90;;;;;;5081961;28;20465;-61
2022/10/23 05:15:00;;;;;;;13.73;7.97;;;11.80;99.90;;;;;;5094264;28;20478;-62
2022/10/23 05:17:29;;;;;;;28.07;7.27;;;;;;;;;;5087358;28;20481;-61
2022/10/23 05:20:00;;;;;;;20.63;10.67;;;11.70;99.90;;;;;;5094174;28;20485;-61
2022/10/23 05:22:32;;;;;;;25.97;9.90;;;11.70;99.90;;;;;;5088056;27;20489;-62
2022/10/23 05:25:00;;;;;;;23.60;10.83;;;11.70;99.90;;;;;;5081206;28;20474;-62
2022/10/23 05:27:27;;;;;;;21.13;8.37;;;;;;;;;;5087623;28;20485;-61
2022/10/23 05:29:54;;;;;;;16.00;7.40;;;11.70;99.90;;;;;;5095471;28;20825;-61
2022/10/23 05:32:22;;;;;;;36.93;11.27;;;11.70;99.90;;;;;;5082792;28;20486;-61
2022/10/23 05:34:49;;;;;;;28.67;9.00;;;11.60;99.90;;;;;;5091992;27;20482;-60
2022/10/23 05:37:17;;;;;;;43.93;12.73;;;11.50;99.90;;;;;;5088995;28;20482;-61
2022/10/23 05:39:44;;;;;;;31.23;9.90;;;11.40;99.90;;;;;;5096081;28;20465;-62
2022/10/23 05:42:11;;;;;;;35.00;9.20;;;11.30;99.90;;;;;;5091881;28;20481;-61
2022/10/23 05:44:38;;;;;;;29.03;10.03;;;11.30;99.90;;;;;;5093849;28;20911;-61
2022/10/23 05:47:05;;;;;;;45.17;14.60;;;12.90;99.90;;;;;;5089179;28;20490;-62
2022/10/23 05:49:31;;;;;;;39.67;9.90;;;11.20;99.90;;;;;;5086311;28;20492;-61
2022/10/23 05:51:58;;;;;;;37.17;12.00;;;11.20;99.90;;;;;;5084945;28;20485;-61
2022/10/23 05:54:26;;;;;;;30.20;8.00;;;11.10;99.90;;;;;;5091947;27;20488;-61
2022/10/23 05:56:53;;;;;;;26.47;9.27;;;;;;;;;;5088969;28;21234;-60
2022/10/23 05:59:20;;;;;;;23.30;10.97;;;10.90;99.90;;;;;;5091306;28;20474;-61
2022/10/23 06:01:47;;;;;;;26.60;11.60;;;11.00;99.90;;;;;;5093525;28;20602;-61
2022/10/23 06:04:13;;;;;;;45.93;14.13;;;11.00;99.90;;;;;;5092872;28;20489;-61
2022/10/23 06:06:40;;;;;;;47.70;15.93;;;11.00;99.90;;;;;;5077338;28;20963;-60
2022/10/23 06:09:07;;;;;;;45.77;18.03;;;11.10;99.90;;;;;;5093673;28;20713;-61
2022/10/23 06:11:35;;;;;;;38.73;11.13;;;11.20;99.90;;;;;;5097133;28;20484;-61
2022/10/23 06:14:02;;;;;;;36.70;14.67;;;;;;;;;;5097508;28;21220;-61
2022/10/23 06:16:29;;;;;;;35.43;14.10;;;11.40;99.90;;;;;;5093417;28;20507;-61
2022/10/23 06:18:56;;;;;;;30.87;11.80;;;11.50;99.90;;;;;;5095864;28;20490;-61
2022/10/23 06:21:23;;;;;;;25.80;8.73;;;10.60;99.90;;;;;;5094212;28;20481;-61
2022/10/23 06:23:50;;;;;;;30.30;10.00;;;;;;;;;;5094782;27;21025;-61
2022/10/23 06:26:19;;;;;;;41.97;12.87;;;11.40;99.90;;;;;;5092200;28;20482;-61
2022/10/23 06:28:47;;;;;;;39.43;11.30;;;11.20;99.90;;;;;;5093872;28;20795;-61
2022/10/23 06:31:17;;;;;;;39.17;13.93;;;11.20;99.90;;;;;;5095530;28;20473;-61
2022/10/23 06:33:45;;;;;;;34.17;12.57;;;;;;;;;;5068103;28;20488;-62
2022/10/23 06:36:12;;;;;;;40.83;15.17;;;;;;;;;;5093371;28;20469;-62
2022/10/23 06:38:39;;;;;;;30.80;9.60;;;11.40;99.90;;;;;;5090632;28;20469;-62
2022/10/23 06:41:06;;;;;;;80.13;17.20;;;;;;;;;;5093713;28;20985;-61
2022/10/23 06:43:34;;;;;;;17.83;7.40;;;11.50;99.90;;;;;;5093870;28;20489;-61
2022/10/23 06:46:03;;;;;;;29.27;10.90;;;;;;;;;;5092202;28;20489;-61
2022/10/23 06:48:30;;;;;;;40.23;10.80;;;11.70;99.90;;;;;;5090127;28;20477;-62
2022/10/23 06:50:56;;;;;;;38.77;10.63;;;11.80;99.90;;;;;;5094140;28;20470;-61
2022/10/23 06:53:24;;;;;;;34.20;10.70;;;11.80;99.90;;;;;;5093027;28;20489;-61
2022/10/23 06:55:50;;;;;;;37.23;11.40;;;11.90;99.90;;;;;;5092905;28;20513;-62
2022/10/23 06:58:17;;;;;;;50.73;14.70;;;11.90;99.90;;;;;;5075630;28;20480;-60
2022/10/23 07:00:44;;;;;;;68.00;12.80;;;12.00;99.90;;;;;;5094467;28;20904;-61
2022/10/23 07:03:12;;;;;;;81.40;14.50;;;12.00;99.90;;;;;;5084451;28;20910;-62
2022/10/23 07:05:39;;;;;;;49.57;14.27;;;12.10;99.90;;;;;;5092715;28;20481;-61
2022/10/23 07:08:07;;;;;;;76.50;19.73;;;12.20;99.90;;;;;;5086041;28;20486;-61
2022/10/23 07:10:34;;;;;;;52.00;16.27;;;;;;;;;;5093901;28;20768;-61
2022/10/23 07:13:02;;;;;;;54.60;14.53;;;;;;;;;;5097155;28;20523;-61
2022/10/23 07:15:29;;;;;;;56.40;15.37;;;13.50;99.90;;;;;;5084878;28;20924;-61
2022/10/23 07:17:56;;;;;;;61.27;14.80;;;14.20;99.90;;;;;;5086838;28;20488;-62
2022/10/23 07:20:25;;;;;;;75.07;17.10;;;;;;;;;;5086950;27;21162;-62
2022/10/23 07:22:53;;;;;;;38.33;12.17;;;;;;;;;;5095160;28;20706;-61
2022/10/23 07:25:19;;;;;;;26.67;11.23;;;16.20;99.90;;;;;;5098109;27;20798;-62
2022/10/23 07:27:46;;;;;;;25.80;10.70;;;16.50;99.90;;;;;;5091354;28;20915;-62
2022/10/23 07:30:14;;;;;;;50.10;13.90;;;;;;;;;;5094278;28;20481;-62
2022/10/23 07:32:41;;;;;;;27.07;9.00;;;17.30;99.90;;;;;;5093799;28;20501;-62
2022/10/23 07:35:10;;;;;;;33.70;13.50;;;17.90;99.90;;;;;;5095728;28;20477;-63
2022/10/23 07:37:38;;;;;;;39.53;9.60;;;18.30;99.50;;;;;;5082164;27;20480;-63
2022/10/23 07:40:07;;;;;;;24.97;8.70;;;18.30;99.70;;;;;;5094892;28;20480;-62
2022/10/23 07:42:34;;;;;;;16.87;7.27;;;18.30;99.40;;;;;;5097749;27;20716;-62
2022/10/23 07:45:03;;;;;;;31.03;9.90;;;18.50;99.90;;;;;;5095553;28;20855;-62
2022/10/23 07:47:31;;;;;;;24.30;9.13;;;18.70;99.70;;;;;;5092365;28;20665;-62
2022/10/23 07:49:58;;;;;;;29.40;8.70;;;;;;;;;;5095302;28;20481;-62
2022/10/23 07:52:25;;;;;;;22.60;7.00;;;;;;;;;;5096926;28;20477;-62
2022/10/23 07:54:53;;;;;;;17.53;8.50;;;19.50;99.40;;;;;;5096542;28;20474;-62
2022/10/23 07:57:20;;;;;;;19.97;8.07;;;19.90;99.90;;;;;;5095913;28;20496;-61
2022/10/23 07:59:47;;;;;;;28.30;7.80;;;;;;;;;;5082952;28;21018;-62
2022/10/23 08:02:15;;;;;;;26.03;10.53;;;20.40;98.50;;;;;;5095650;28;20473;-63
2022/10/23 08:04:42;;;;;;;20.83;7.90;;;;;;;;;;5096189;28;20461;-63
2022/10/23 08:07:09;;;;;;;34.50;10.73;;;20.80;98.50;;;;;;5092221;28;20485;-63
2022/10/23 08:09:36;;;;;;;14.83;7.40;;;20.70;98.30;;;;;;5095064;28;20874;-63
2022/10/23 08:12:05;;;;;;;24.33;9.17;;;20.50;98.40;;;;;;5085302;28;20485;-62
2022/10/23 08:14:32;;;;;;;26.60;7.27;;;20.30;98.80;;;;;;5095116;28;20484;-62
2022/10/23 08:16:58;;;;;;;37.57;9.33;;;19.70;98.50;;;;;;5094064;28;20489;-62
2022/10/23 08:19:25;;;;;;;17.03;7.40;;;19.40;99.70;;;;;;5095857;28;20481;-62
2022/10/23 08:21:53;;;;;;;21.93;6.90;;;18.60;99.90;;;;;;5095805;28;20481;-62
2022/10/23 08:24:20;;;;;;;26.37;9.37;;;18.50;99.90;;;;;;5063314;28;20538;-63
2022/10/23 08:26:49;;;;;;;18.67;7.47;;;18.20;99.90;;;;;;5094709;28;20481;-63
2022/10/23 08:29:17;;;;;;;27.17;9.20;;;;;;;;;;5094763;28;20469;-62
2022/10/23 08:31:44;;;;;;;27.80;9.13;;;;;;;;;;5096516;27;20474;-62
2022/10/23 08:34:11;;;;;;;51.07;15.43;;;17.80;99.90;;;;;;5094102;28;20767;-62
2022/10/23 08:36:39;;;;;;;37.30;13.83;;;17.80;99.90;;;;;;5095102;28;20486;-63
2022/10/23 08:39:06;;;;;;;41.70;14.40;;;17.80;99.90;;;;;;5095263;28;20509;-62
2022/10/23 08:41:35;;;;;;;30.97;10.00;;;17.70;99.90;;;;;;5094780;28;20477;-63
2022/10/23 08:44:09;;;;;;;59.00;13.27;;;17.80;99.90;;;;;;5094992;28;21080;-62
2022/10/23 08:46:40;;;;;;;43.77;13.10;;;;;;;;;;5094931;27;20486;-63
2022/10/23 08:49:18;;;;;;;55.87;16.03;;;17.70;99.90;;;;;;5095546;28;20960;-62
2022/10/23 08:51:48;;;;;;;30.47;9.73;;;17.80;99.90;;;;;;5095791;28;20465;-62
2022/10/23 08:54:19;;;;;;;27.73;12.10;;;17.60;99.90;;;;;;5092740;28;20482;-61
2022/10/23 08:56:50;;;;;;;27.47;8.80;;;17.50;99.90;;;;;;5085578;28;20467;-62
2022/10/23 08:59:24;;;;;;;27.40;12.63;;;17.50;99.90;;;;;;5086706;28;20481;-62
2022/10/23 09:01:57;;;;;;;23.90;11.83;;;17.40;99.90;;;;;;5091289;28;20619;-62
2022/10/23 09:04:24;;;;;;;31.53;12.70;;;;;;;;;;5064322;28;20478;-62
2022/10/23 09:07:02;;;;;;;27.03;10.93;;;17.20;99.90;;;;;;5081281;28;20473;-62
2022/10/23 09:09:55;;;;;;;26.80;12.63;;;17.30;99.90;;;;;;5092492;28;20465;-63
2022/10/23 09:12:23;;;;;;;45.30;14.00;;;;;;;;;;5092666;28;20939;-62
2022/10/23 09:15:22;;;;;;;48.70;13.07;;;17.50;99.90;;;;;;5078648;28;20489;-62
2022/10/23 09:17:54;;;;;;;47.67;12.87;;;;;;;;;;5092755;27;20515;-62
2022/10/23 09:20:23;;;;;;;69.27;15.50;;;17.60;99.90;;;;;;5092986;28;20486;-61
2022/10/23 09:22:54;;;;;;;84.00;17.27;;;17.60;99.90;;;;;;5094931;28;20477;-62
2022/10/23 09:25:24;;;;;;;127.60;20.17;;;17.70;99.90;;;;;;5090803;28;20836;-62
2022/10/23 09:27:52;;;;;;;92.83;16.20;;;;;;;;;;5091338;28;20478;-63
2022/10/23 09:30:28;;;;;;;44.37;16.87;;;17.80;99.90;;;;;;5082768;28;20830;-62
2022/10/23 09:32:56;;;;;;;19.07;11.43;;;17.80;99.90;;;;;;5066356;28;21006;-63
2022/10/23 09:35:24;;;;;;;24.63;9.53;;;;;;;;;;5094744;28;20487;-62
2022/10/23 09:37:52;;;;;;;23.17;8.30;;;18.00;99.90;;;;;;5092982;28;20981;-62
2022/10/23 09:40:25;;;;;;;36.97;10.73;;;18.10;99.90;;;;;;5094730;28;20523;-62
2022/10/23 09:42:55;;;;;;;29.37;10.13;;;18.30;99.90;;;;;;5093239;28;20474;-61
2022/10/23 09:45:27;;;;;;;38.10;11.10;;;18.60;99.90;;;;;;5091971;27;20885;-63
2022/10/23 09:48:05;;;;;;;22.30;7.10;;;;;;;;;;5093672;27;20469;-62
2022/10/23 09:50:32;;;;;;;17.77;6.50;;;19.20;99.90;;;;;;5093437;28;20992;-62
2022/10/23 09:52:59;;;;;;;22.93;8.27;;;19.40;99.90;;;;;;5090062;28;20470;-62
2022/10/23 09:55:27;;;;;;;39.87;9.50;;;19.60;99.90;;;;;;5093670;28;20866;-62
2022/10/23 09:57:55;;;;;;;16.80;7.07;;;19.90;99.90;;;;;;5094507;28;20470;-62
2022/10/23 10:00:23;;;;;;;40.17;7.70;;;;;;;;;;5081153;28;20470;-62
2022/10/23 10:02:57;;;;;;;25.63;8.07;;;;;;;;;;5093025;28;20486;-62
2022/10/23 10:05:27;;;;;;;24.53;7.80;;;20.60;99.90;;;;;;5094100;28;20721;-62
2022/10/23 10:07:58;;;;;;;33.60;8.37;;;20.70;99.90;;;;;;5093763;28;20478;-63
2022/10/23 10:10:25;;;;;;;44.67;10.33;;;;;;;;;;5094577;28;20836;-62
2022/10/23 10:12:56;;;;;;;92.40;9.67;;;20.90;99.90;;;;;;5092244;28;20485;-63
2022/10/23 10:15:28;;;;;;;26.87;8.33;;;20.80;99.90;;;;;;5088999;28;20470;-63
2022/10/23 10:17:59;;;;;;;27.97;7.43;;;;;;;;;;5078500;28;20944;-63
2022/10/23 10:20:44;;;;;;;41.20;7.20;;;20.70;99.90;;;;;;5094227;28;21157;-63
2022/10/23 10:23:15;;;;;;;192.77;16.30;;;;;;;;;;5081598;28;20488;-62
2022/10/23 10:25:50;;;;;;;35.10;6.17;;;20.80;99.90;;;;;;5080019;28;20460;-63
2022/10/23 10:28:24;;;;;;;20.20;8.37;;;;;;;;;;5091227;28;20477;-63
2022/10/23 10:31:00;;;;;;;20.03;4.27;;;21.00;99.90;;;;;;5091307;28;20459;-62
2022/10/23 10:33:34;;;;;;;19.57;5.80;;;21.20;99.90;;;;;;5088833;28;20444;-62
2022/10/23 10:36:08;;;;;;;28.73;5.70;;;;;;;;;;5067368;28;20443;-63
2022/10/23 10:38:46;;;;;;;16.50;4.27;;;21.50;99.90;;;;;;5080606;28;20854;-62
2022/10/23 10:41:30;;;;;;;22.60;8.00;;;21.50;99.10;;;;;;5082117;28;20460;-63
2022/10/23 10:44:22;;;;;;;15.10;6.57;;;21.50;99.90;;;;;;5094742;28;20503;-63
2022/10/23 10:46:56;;;;;;;7.70;5.23;;;21.50;98.60;;;;;;5078473;28;20448;-63
2022/10/23 10:49:29;;;;;;;8.87;5.83;;;21.50;98.70;;;;;;5092622;28;20845;-63
2022/10/23 10:52:06;;;;;;;16.00;6.67;;;21.30;97.00;;;;;;5094350;28;20481;-64
2022/10/23 10:54:43;;;;;;;11.20;4.70;;;21.40;97.60;;;;;;5091863;28;20594;-63
2022/10/23 10:57:16;;;;;;;23.70;6.73;;;21.60;98.60;;;;;;5080265;28;20924;-63
2022/10/23 10:59:46;;;;;;;12.17;5.80;;;21.70;98.20;;;;;;5096041;28;20485;-63
2022/10/23 11:02:25;;;;;;;18.13;7.97;;;21.60;96.80;;;;;;5089301;28;20492;-63
2022/10/23 11:04:53;;;;;;;13.73;4.93;;;;;;;;;;5093053;28;20452;-63
2022/10/23 11:07:27;;;;;;;11.87;5.93;;;21.60;96.80;;;;;;5086917;28;20460;-63
2022/10/23 11:09:56;;;;;;;13.40;4.80;;;21.80;97.70;;;;;;5093340;28;20444;-64
2022/10/23 11:12:26;;;;;;;11.80;5.10;;;22.00;98.10;;;;;;5088605;28;20490;-64
2022/10/23 11:14:53;;;;;;;15.87;5.80;;;;;;;;;;5082729;28;20488;-64
2022/10/23 11:17:25;;;;;;;16.93;7.30;;;21.70;97.60;;;;;;5078434;28;20481;-64
2022/10/23 11:19:58;;;;;;;14.63;5.70;;;21.80;97.60;;;;;;5089195;28;20475;-64
2022/10/23 11:22:34;;;;;;;23.33;5.27;;;21.90;97.50;;;;;;5092815;28;20549;-64
2022/10/23 11:25:27;;;;;;;13.57;5.60;;;22.00;97.50;;;;;;5092186;28;21034;-63
2022/10/23 11:28:13;;;;;;;14.87;5.13;;;;;;;;;;5090224;28;20474;-64
2022/10/23 11:30:57;;;;;;;15.37;4.53;;;22.30;96.70;;;;;;5090419;28;20456;-64
2022/10/23 11:33:59;;;;;;;8.03;4.83;;;22.40;97.40;;;;;;5093782;28;20477;-64
2022/10/23 11:36:43;;;;;;;9.40;5.87;;;20.70;95.20;;;;;;5089188;28;20459;-64
2022/10/23 11:39:20;;;;;;;15.17;5.47;;;22.40;96.90;;;;;;5073345;28;20474;-64
2022/10/23 11:41:58;;;;;;;13.93;5.33;;;22.40;97.30;;;;;;5090970;28;20547;-64
2022/10/23 11:44:28;;;;;;;10.20;3.23;;;22.60;97.30;;;;;;5090122;28;21008;-64
2022/10/23 11:47:03;;;;;;;6.07;4.07;;;22.40;96.40;;;;;;5079980;28;20504;-65
2022/10/23 11:49:30;;;;;;;11.43;4.57;;;22.60;97.90;;;;;;5092293;28;20451;-64
2022/10/23 11:52:01;;;;;;;6.60;4.37;;;22.60;96.90;;;;;;5093815;28;20485;-64
2022/10/23 11:54:29;;;;;;;8.70;5.20;;;22.40;96.40;;;;;;5091962;28;20916;-64
2022/10/23 11:57:10;;;;;;;4.70;3.40;;;22.30;96.90;;;;;;5092129;28;20826;-64
2022/10/23 11:59:49;;;;;;;13.60;6.17;;;22.40;96.40;;;;;;5067582;28;20519;-64
2022/10/23 12:02:25;;;;;;;14.83;5.90;;;22.20;96.40;;;;;;5092412;28;20463;-64
2022/10/23 12:04:54;;;;;;;10.67;5.20;;;22.30;96.40;;;;;;5096818;28;20771;-64
2022/10/23 12:07:24;;;;;;;18.13;6.27;;;22.30;96.40;;;;;;5094877;28;20525;-64
2022/10/23 12:09:58;;;;;;;20.70;6.10;;;22.30;96.60;;;;;;5097163;28;20456;-65
2022/10/23 12:12:31;;;;;;;10.90;5.20;;;22.30;96.60;;;;;;5094732;28;20452;-64
2022/10/23 12:15:17;;;;;;;18.43;3.30;;;22.50;97.40;;;;;;5096295;28;21846;-65
2022/10/23 12:17:45;;;;;;;13.43;6.10;;;22.60;96.70;;;;;;5082848;28;20473;-64
2022/10/23 12:20:30;;;;;;;12.10;2.90;;;22.50;96.00;;;;;;5094005;28;20456;-64
2022/10/23 12:23:18;;;;;;;15.43;5.43;;;22.70;97.10;;;;;;5069366;28;20456;-64
2022/10/23 12:26:04;;;;;;;10.57;5.40;;;22.80;96.90;;;;;;5077165;28;20449;-64
2022/10/23 12:28:36;;;;;;;13.17;4.73;;;22.90;96.40;;;;;;5081728;28;20463;-65
2022/10/23 12:31:09;;;;;;;16.03;8.37;;;;;;;;;;5095546;28;20469;-65
2022/10/23 12:33:46;;;;;;;13.63;4.10;;;22.80;96.60;;;;;;5093399;28;20845;-64
2022/10/23 12:36:20;;;;;;;29.93;9.07;;;;;;;;;;5064653;28;20448;-64
2022/10/23 12:38:48;;;;;;;15.50;7.03;;;;;;;;;;5085674;27;20475;-64
2022/10/23 12:41:21;;;;;;;17.57;7.37;;;22.30;96.80;;;;;;5094688;27;20477;-65
2022/10/23 12:43:54;;;;;;;15.47;6.93;;;22.30;97.10;;;;;;5093654;28;21229;-64
2022/10/23 12:46:30;;;;;;;23.67;6.50;;;22.20;97.40;;;;;;5091571;28;20460;-64
2022/10/23 12:48:57;;;;;;;35.27;7.70;;;22.20;97.30;;;;;;5090456;28;20455;-64
2022/10/23 12:51:26;;;;;;;31.53;8.70;;;22.20;97.70;;;;;;5095204;28;20585;-64
2022/10/23 12:53:53;;;;;;;30.20;9.03;;;22.20;97.90;;;;;;5078313;28;20825;-65
2022/10/23 12:56:22;;;;;;;32.70;11.57;;;22.10;98.00;;;;;;5092742;28;20452;-64
2022/10/23 12:58:50;;;;;;;56.20;8.77;;;;;;;;;;5095041;28;20963;-64
2022/10/23 13:01:25;;;;;;;115.70;19.37;;;22.00;97.80;;;;;;5093371;28;20481;-64
2022/10/23 13:03:53;;;;;;;56.63;10.83;;;;;;;;;;5095987;28;20549;-64